createdAt,value
2023-10-19T00:02:16.765Z,13.25
2023-10-19T00:04:47.591Z,17.80
2023-10-19T00:07:17.408Z,15.27
2023-10-19T00:09:49.185Z,16.15
2023-10-19T00:12:17.711Z,15.13
2023-10-19T00:14:47.949Z,17.35
2023-10-19T00:17:16.183Z,13.45
2023-10-19T00:19:59.096Z,15.30
2023-10-19T00:22:27.357Z,17.65
2023-10-19T00:24:55.550Z,16.95
2023-10-19T00:27:24.803Z,16.23
2023-10-19T00:29:56.761Z,14.23
2023-10-19T00:32:26.424Z,14.65
2023-10-19T00:37:27.627Z,13.93
2023-10-19T00:39:57.395Z,14.45
2023-10-19T00:42:31.447Z,15.50
2023-10-19T00:45:05.992Z,13.18
2023-10-19T00:47:41.446Z,19.10
2023-10-19T00:50:20.978Z,13.45
2023-10-19T00:52:51.380Z,14.90
2023-10-19T00:55:22.799Z,10.55
2023-10-19T00:57:55.649Z,10.30
2023-10-19T01:00:35.600Z,12.63
2023-10-19T01:03:06.564Z,12.63
2023-10-19T01:05:38.193Z,13.00
2023-10-19T01:08:16.252Z,15.77
2023-10-19T01:10:46.878Z,14.02
2023-10-19T01:13:17.857Z,13.55
2023-10-19T01:15:50.786Z,11.73
2023-10-19T01:18:19.556Z,14.05
2023-10-19T01:20:52.939Z,12.87
2023-10-19T01:23:27.346Z,12.40
2023-10-19T01:26:08.649Z,13.55
2023-10-19T01:28:45.180Z,10.40
2023-10-19T01:31:19.032Z,14.73
2023-10-19T01:33:47.643Z,11.43
2023-10-19T01:36:28.546Z,14.13
2023-10-19T01:39:02.576Z,11.35
2023-10-19T01:41:32.375Z,12.23
2023-10-19T01:44:05.710Z,10.30
2023-10-19T01:46:35.253Z,10.52
2023-10-19T01:49:05.325Z,10.07
2023-10-19T01:51:34.697Z,15.38
2023-10-19T01:54:05.833Z,11.43
2023-10-19T01:56:35.294Z,9.85
2023-10-19T01:59:05.211Z,15.68
2023-10-19T02:01:34.248Z,11.25
2023-10-19T02:04:06.961Z,8.63
2023-10-19T02:06:37.939Z,10.40
2023-10-19T02:09:18.652Z,13.85
2023-10-19T02:11:48.775Z,7.35
2023-10-19T02:14:17.649Z,9.75
2023-10-19T02:16:48.269Z,12.02
2023-10-19T02:19:16.229Z,9.80
2023-10-19T02:21:44.598Z,9.23
2023-10-19T02:26:45.496Z,12.60
2023-10-19T02:29:13.814Z,9.95
2023-10-19T02:31:43.160Z,12.63
2023-10-19T02:34:12.466Z,13.88
2023-10-19T02:36:41.750Z,10.20
2023-10-19T02:39:11.132Z,12.27
2023-10-19T02:41:42.490Z,13.80
2023-10-19T02:44:23.569Z,17.33
2023-10-19T02:46:55.252Z,14.48
2023-10-19T02:49:23.929Z,15.40
2023-10-19T02:51:54.472Z,10.02
2023-10-19T02:54:24.446Z,11.35
2023-10-19T02:56:55.356Z,9.93
2023-10-19T02:59:24.705Z,14.38
2023-10-19T03:02:02.138Z,13.60
2023-10-19T03:04:31.099Z,10.23
2023-10-19T03:06:59.967Z,8.35
2023-10-19T03:09:31.130Z,10.40
2023-10-19T03:12:04.837Z,12.00
2023-10-19T03:14:33.576Z,12.90
2023-10-19T03:17:04.060Z,11.70
2023-10-19T03:19:31.622Z,9.18
2023-10-19T03:22:01.684Z,9.15
2023-10-19T03:24:38.264Z,12.13
2023-10-19T03:27:14.464Z,10.43
2023-10-19T03:29:47.569Z,11.93
2023-10-19T03:32:17.491Z,8.93
2023-10-19T03:34:49.420Z,11.00
2023-10-19T03:37:21.004Z,8.55
2023-10-19T03:39:52.685Z,13.57
2023-10-19T03:42:23.331Z,10.85
2023-10-19T03:44:54.993Z,10.23
2023-10-19T03:47:27.413Z,10.60
2023-10-19T03:49:56.135Z,12.13
2023-10-19T03:52:24.767Z,11.57
2023-10-19T03:54:54.478Z,11.63
2023-10-19T03:57:26.356Z,16.48
2023-10-19T03:59:58.161Z,20.40
2023-10-19T04:02:30.364Z,18.15
2023-10-19T04:04:59.633Z,17.92
2023-10-19T04:07:28.638Z,14.23
2023-10-19T04:10:11.066Z,14.15
2023-10-19T04:12:43.719Z,13.57
2023-10-19T04:15:15.967Z,12.73
2023-10-19T04:17:45.727Z,16.85
2023-10-19T04:20:30.455Z,15.45
2023-10-19T04:23:00.142Z,23.85
2023-10-19T04:25:30.834Z,18.23
2023-10-19T04:28:02.242Z,15.85
2023-10-19T04:30:34.361Z,19.65
2023-10-19T04:33:03.119Z,19.17
2023-10-19T04:35:33.548Z,20.52
2023-10-19T04:38:02.755Z,17.38
2023-10-19T04:40:31.562Z,15.18
2023-10-19T04:43:01.269Z,22.42
2023-10-19T04:45:31.045Z,18.83
2023-10-19T04:47:59.661Z,15.50
2023-10-19T04:50:28.163Z,19.20
2023-10-19T04:52:56.594Z,29.15
2023-10-19T04:55:25.767Z,19.75
2023-10-19T04:57:54.046Z,13.90
2023-10-19T05:00:25.917Z,21.50
2023-10-19T05:02:54.469Z,19.20
2023-10-19T05:05:23.132Z,15.93
2023-10-19T05:07:53.406Z,15.38
2023-10-19T05:10:22.026Z,16.60
2023-10-19T05:12:50.314Z,17.05
2023-10-19T05:15:19.778Z,20.90
2023-10-19T05:17:49.625Z,17.33
2023-10-19T05:20:18.320Z,27.70
2023-10-19T05:22:46.578Z,15.48
2023-10-19T05:25:15.266Z,17.45
2023-10-19T05:27:47.031Z,21.58
2023-10-19T05:30:16.302Z,20.30
2023-10-19T05:32:44.994Z,22.98
2023-10-19T05:35:23.950Z,22.52
2023-10-19T05:37:52.296Z,22.40
2023-10-19T05:40:21.193Z,26.90
2023-10-19T05:42:49.477Z,23.70
2023-10-19T05:45:18.796Z,23.87
2023-10-19T05:47:47.201Z,24.67
2023-10-19T05:50:17.301Z,25.90
2023-10-19T05:52:46.178Z,19.95
2023-10-19T05:55:14.807Z,21.98
2023-10-19T05:57:43.508Z,17.52
2023-10-19T06:00:15.245Z,15.68
2023-10-19T06:02:48.145Z,15.00
2023-10-19T06:05:18.866Z,14.32
2023-10-19T06:07:48.290Z,14.25
2023-10-19T06:10:18.802Z,14.02
2023-10-19T06:12:47.694Z,14.95
2023-10-19T06:15:17.339Z,12.90
2023-10-19T06:17:47.323Z,13.95
2023-10-19T06:20:27.737Z,9.05
2023-10-19T06:22:58.310Z,6.70
2023-10-19T06:25:27.213Z,6.90
2023-10-19T06:27:58.808Z,5.43
2023-10-19T06:30:28.942Z,3.35
2023-10-19T06:33:02.211Z,5.53
2023-10-19T06:35:34.056Z,3.92
2023-10-19T06:38:04.949Z,2.53
2023-10-19T06:40:37.473Z,6.95
2023-10-19T06:43:06.868Z,6.65
2023-10-19T06:45:35.998Z,7.20
2023-10-19T06:48:05.349Z,3.15
2023-10-19T06:50:37.363Z,4.97
2023-10-19T06:53:07.139Z,3.05
2023-10-19T06:55:36.223Z,6.53
2023-10-19T06:58:05.908Z,4.30
2023-10-19T07:00:35.582Z,4.30
2023-10-19T07:05:33.359Z,5.10
2023-10-19T07:08:03.859Z,5.85
2023-10-19T07:10:33.501Z,3.53
2023-10-19T07:13:01.794Z,4.57
2023-10-19T07:15:31.495Z,8.10
2023-10-19T07:20:30.145Z,2.78
2023-10-19T07:25:32.638Z,4.32
2023-10-19T07:28:01.655Z,3.55
2023-10-19T07:30:31.954Z,4.78
2023-10-19T07:33:00.813Z,2.47
2023-10-19T07:38:05.211Z,4.35
2023-10-19T07:40:35.405Z,2.95
2023-10-19T07:43:05.079Z,3.28
2023-10-19T07:45:35.838Z,4.45
2023-10-19T07:48:08.591Z,2.25
2023-10-19T07:50:41.952Z,4.60
2023-10-19T07:53:12.203Z,5.82
2023-10-19T07:55:45.391Z,3.15
2023-10-19T07:58:14.020Z,2.70
2023-10-19T08:00:43.636Z,1.02
2023-10-19T08:03:15.020Z,1.52
2023-10-19T08:05:44.701Z,2.05
2023-10-19T08:08:14.167Z,2.83
2023-10-19T08:10:44.307Z,2.55
2023-10-19T08:13:14.038Z,3.30
2023-10-19T08:15:42.688Z,2.55
2023-10-19T08:18:13.888Z,1.87
2023-10-19T08:20:45.531Z,1.50
2023-10-19T08:23:17.868Z,1.83
2023-10-19T08:25:56.363Z,2.38
2023-10-19T08:28:25.751Z,1.85
2023-10-19T08:31:02.108Z,2.92
2023-10-19T08:33:35.246Z,3.70
2023-10-19T08:36:07.661Z,2.67
2023-10-19T08:38:36.201Z,1.50
2023-10-19T08:41:06.312Z,3.03
2023-10-19T08:43:35.261Z,5.35
2023-10-19T08:46:05.025Z,4.32
2023-10-19T08:48:38.038Z,3.83
2023-10-19T08:51:12.189Z,2.78
2023-10-19T08:53:45.778Z,2.60
2023-10-19T08:56:17.687Z,2.90
2023-10-19T08:58:47.334Z,2.10
2023-10-19T09:01:16.667Z,2.28
2023-10-19T09:03:45.314Z,1.33
2023-10-19T09:06:16.040Z,3.03
2023-10-19T09:08:48.177Z,2.35
2023-10-19T09:11:21.126Z,3.20
2023-10-19T09:13:51.317Z,3.60
2023-10-19T09:16:23.202Z,3.38
2023-10-19T09:18:52.821Z,2.88
2023-10-19T09:21:26.316Z,2.20
2023-10-19T09:23:56.126Z,3.35
2023-10-19T09:26:27.054Z,3.08
2023-10-19T09:28:56.403Z,1.55
2023-10-19T09:31:26.201Z,3.85
2023-10-19T09:33:56.726Z,1.95
2023-10-19T09:36:28.697Z,3.45
2023-10-19T09:38:59.549Z,1.90
2023-10-19T09:41:31.566Z,2.38
2023-10-19T09:44:06.236Z,2.70
2023-10-19T09:46:38.409Z,2.53
2023-10-19T09:49:08.124Z,4.38
2023-10-19T09:51:37.413Z,4.22
2023-10-19T09:54:14.167Z,3.22
2023-10-19T09:56:55.016Z,3.72
2023-10-19T09:59:31.907Z,2.22
2023-10-19T10:02:14.195Z,2.00
2023-10-19T10:04:47.016Z,1.83
2023-10-19T10:07:25.473Z,2.95
2023-10-19T10:10:06.249Z,2.08
2023-10-19T10:12:38.608Z,2.08
2023-10-19T10:15:09.485Z,1.55
2023-10-19T10:17:40.821Z,1.80
2023-10-19T10:20:32.394Z,3.05
2023-10-19T10:23:22.838Z,1.63
2023-10-19T10:25:55.164Z,2.50
2023-10-19T10:28:25.878Z,4.15
2023-10-19T10:31:22.555Z,1.98
2023-10-19T10:33:52.826Z,1.13
2023-10-19T10:36:22.060Z,2.05
2023-10-19T10:38:52.772Z,2.22
2023-10-19T10:41:26.362Z,1.75
2023-10-19T10:43:58.158Z,2.78
2023-10-19T10:46:28.444Z,4.75
2023-10-19T10:48:57.460Z,2.20
2023-10-19T10:51:27.182Z,2.63
2023-10-19T10:53:56.667Z,4.47
2023-10-19T10:56:26.491Z,3.85
2023-10-19T10:58:57.103Z,4.63
2023-10-19T11:01:32.193Z,5.00
2023-10-19T11:04:11.711Z,5.32
2023-10-19T11:09:21.147Z,6.35
2023-10-19T11:11:50.541Z,4.88
2023-10-19T11:14:20.684Z,5.13
2023-10-19T11:16:49.114Z,2.70
2023-10-19T11:19:17.827Z,5.40
2023-10-19T11:21:59.217Z,2.80
2023-10-19T11:24:33.565Z,2.05
2023-10-19T11:27:02.011Z,6.47
2023-10-19T11:29:32.065Z,3.45
2023-10-19T11:32:01.392Z,2.75
2023-10-19T11:34:31.627Z,3.05
2023-10-19T11:37:01.603Z,2.08
2023-10-19T11:39:31.190Z,3.35
2023-10-19T11:41:59.729Z,3.50
2023-10-19T11:44:28.663Z,3.22
2023-10-19T11:46:58.715Z,2.28
2023-10-19T11:49:27.459Z,1.83
2023-10-19T11:51:56.052Z,1.38
2023-10-19T11:54:24.988Z,2.38
2023-10-19T11:56:54.374Z,3.15
2023-10-19T11:59:23.035Z,3.70
2023-10-19T12:01:51.408Z,3.47
2023-10-19T12:04:21.561Z,3.42
2023-10-19T12:06:50.029Z,3.22
2023-10-19T12:09:18.821Z,5.15
2023-10-19T12:11:48.722Z,11.48
2023-10-19T12:14:17.738Z,8.13
2023-10-19T12:16:46.667Z,5.22
2023-10-19T12:24:16.535Z,6.55
2023-10-19T12:26:46.197Z,3.40
2023-10-19T12:29:17.965Z,3.08
2023-10-19T12:31:51.282Z,4.07
2023-10-19T12:34:20.119Z,5.18
2023-10-19T12:36:53.331Z,2.17
2023-10-19T12:39:36.186Z,2.38
2023-10-19T12:42:05.418Z,2.55
2023-10-19T12:44:40.608Z,2.58
2023-10-19T12:47:12.095Z,7.07
2023-10-19T12:49:43.346Z,2.53
2023-10-19T12:52:16.018Z,3.95
2023-10-19T12:54:46.760Z,5.93
2023-10-19T12:57:16.200Z,6.18
2023-10-19T12:59:45.373Z,4.45
2023-10-19T13:02:16.354Z,2.85
2023-10-19T13:04:47.883Z,1.92
2023-10-19T13:07:17.818Z,2.80
2023-10-19T13:09:46.573Z,3.55
2023-10-19T13:12:14.773Z,3.43
2023-10-19T13:14:45.214Z,3.93
2023-10-19T13:17:13.682Z,4.20
2023-10-19T13:19:42.318Z,3.67
2023-10-19T13:22:10.557Z,4.22
2023-10-19T13:24:43.381Z,4.23
2023-10-19T13:27:11.763Z,3.50
2023-10-19T13:29:43.219Z,4.90
2023-10-19T13:32:12.753Z,5.22
2023-10-19T13:34:42.588Z,4.90
2023-10-19T13:39:40.881Z,8.63
2023-10-19T13:42:10.445Z,4.70
2023-10-19T13:44:39.879Z,5.55
2023-10-19T13:47:10.300Z,4.10
2023-10-19T13:49:39.119Z,4.65
2023-10-19T13:52:10.123Z,4.93
2023-10-19T13:54:40.227Z,7.13
2023-10-19T13:57:08.418Z,3.60
2023-10-19T13:59:37.059Z,3.67
2023-10-19T14:02:05.341Z,3.58
2023-10-19T14:04:34.376Z,3.47
2023-10-19T14:07:02.655Z,6.07
2023-10-19T14:09:33.051Z,5.90
2023-10-19T14:12:05.451Z,2.75
2023-10-19T14:14:36.584Z,4.70
2023-10-19T14:17:06.915Z,3.80
2023-10-19T14:19:35.407Z,4.22
2023-10-19T14:22:03.914Z,4.38
2023-10-19T14:24:35.528Z,3.83
2023-10-19T14:27:05.365Z,3.70
2023-10-19T14:29:34.028Z,5.57
2023-10-19T14:32:17.696Z,4.93
2023-10-19T14:34:49.745Z,4.35
2023-10-19T14:37:21.524Z,5.03
2023-10-19T14:39:49.989Z,5.68
2023-10-19T14:42:19.665Z,6.47
2023-10-19T14:44:48.461Z,6.93
2023-10-19T14:47:16.690Z,5.55
2023-10-19T14:49:45.320Z,6.40
2023-10-19T14:52:13.695Z,7.28
2023-10-19T14:54:42.294Z,5.68
2023-10-19T14:57:10.504Z,6.90
2023-10-19T14:59:40.623Z,8.97
2023-10-19T15:02:13.572Z,8.23
2023-10-19T15:04:42.398Z,8.27
2023-10-19T15:07:10.702Z,6.80
2023-10-19T15:09:39.439Z,5.93
2023-10-19T15:12:09.586Z,9.88
2023-10-19T15:14:44.545Z,9.38
2023-10-19T15:17:12.957Z,5.70
2023-10-19T15:19:41.550Z,11.40
2023-10-19T15:22:10.000Z,4.18
2023-10-19T15:24:38.488Z,3.63
2023-10-19T15:27:06.698Z,4.88
2023-10-19T15:29:35.430Z,4.10
2023-10-19T15:32:05.843Z,7.88
2023-10-19T15:34:35.750Z,7.15
2023-10-19T15:37:04.200Z,24.00
2023-10-19T15:39:33.044Z,20.85
2023-10-19T15:42:04.197Z,22.03
2023-10-19T15:44:32.902Z,10.82
2023-10-19T15:47:01.709Z,8.60
2023-10-19T15:49:32.069Z,4.55
2023-10-19T15:52:00.271Z,6.07
2023-10-19T15:54:28.777Z,5.93
2023-10-19T15:56:57.082Z,9.32
2023-10-19T15:59:25.579Z,5.35
2023-10-19T16:01:53.885Z,8.68
2023-10-19T16:04:23.593Z,5.40
2023-10-19T16:09:22.553Z,3.30
2023-10-19T16:11:52.119Z,5.40
2023-10-19T16:14:21.429Z,15.60
2023-10-19T16:16:49.888Z,8.70
2023-10-19T16:19:18.577Z,5.75
2023-10-19T16:21:47.352Z,5.10
2023-10-19T16:24:17.296Z,5.80
2023-10-19T16:26:45.881Z,4.20
2023-10-19T16:29:17.309Z,5.03
2023-10-19T16:31:47.053Z,5.38
2023-10-19T16:34:17.216Z,3.97
2023-10-19T16:36:45.548Z,4.10
2023-10-19T16:39:17.339Z,4.25
2023-10-19T16:41:47.766Z,5.15
2023-10-19T16:44:16.262Z,3.50
2023-10-19T16:46:47.199Z,8.27
2023-10-19T16:49:16.356Z,7.15
2023-10-19T16:51:44.693Z,2.97
2023-10-19T16:54:13.362Z,3.38
2023-10-19T16:56:47.606Z,3.67
2023-10-19T16:59:18.552Z,5.20
2023-10-19T17:01:46.990Z,7.72
2023-10-19T17:04:15.943Z,3.38
2023-10-19T17:06:44.363Z,5.63
2023-10-19T17:09:19.640Z,5.87
2023-10-19T17:11:48.459Z,5.95
2023-10-19T17:14:18.635Z,7.80
2023-10-19T17:16:47.215Z,7.25
2023-10-19T17:19:16.612Z,5.47
2023-10-19T17:21:45.107Z,5.38
2023-10-19T17:24:13.874Z,4.70
2023-10-19T17:26:43.072Z,5.30
2023-10-19T17:31:41.142Z,6.60
2023-10-19T17:34:09.780Z,5.20
2023-10-19T17:36:38.059Z,3.25
2023-10-19T17:39:13.271Z,5.18
2023-10-19T17:41:43.438Z,3.97
2023-10-19T17:44:12.119Z,4.32
2023-10-19T17:46:42.746Z,5.67
2023-10-19T17:49:12.166Z,4.80
2023-10-19T17:51:40.784Z,5.32
2023-10-19T17:54:11.026Z,5.00
2023-10-19T17:56:39.404Z,4.20
2023-10-19T17:59:09.192Z,5.07
2023-10-19T18:01:37.848Z,5.25
2023-10-19T18:04:09.323Z,5.10
2023-10-19T18:06:37.865Z,3.63
2023-10-19T18:09:09.430Z,3.92
2023-10-19T18:11:38.367Z,4.50
2023-10-19T18:14:09.251Z,7.85
2023-10-19T18:16:37.565Z,4.53
2023-10-19T18:19:09.339Z,6.47
2023-10-19T18:21:38.099Z,6.97
2023-10-19T18:24:09.476Z,7.18
2023-10-19T18:26:38.870Z,6.35
2023-10-19T18:29:08.719Z,5.88
2023-10-19T18:31:37.311Z,4.38
2023-10-19T18:34:08.192Z,4.30
2023-10-19T18:36:36.617Z,5.47
2023-10-19T18:39:05.531Z,2.30
2023-10-19T18:41:34.045Z,5.18
2023-10-19T18:44:04.428Z,4.88
2023-10-19T18:46:32.854Z,7.55
2023-10-19T18:49:01.457Z,7.00
2023-10-19T18:51:31.234Z,8.40
2023-10-19T18:54:00.161Z,7.28
2023-10-19T18:56:28.828Z,4.90
2023-10-19T18:58:57.518Z,9.57
2023-10-19T19:01:26.125Z,4.75
2023-10-19T19:03:54.606Z,5.00
2023-10-19T19:06:23.221Z,5.95
2023-10-19T19:08:56.142Z,2.60
2023-10-19T19:11:24.676Z,3.67
2023-10-19T19:13:53.481Z,4.85
2023-10-19T19:16:22.432Z,3.60
2023-10-19T19:18:52.306Z,5.43
2023-10-19T19:21:24.389Z,4.60
2023-10-19T19:23:54.611Z,7.28
2023-10-19T19:26:23.157Z,6.60
2023-10-19T19:28:53.157Z,6.57
2023-10-19T19:31:22.787Z,4.63
2023-10-19T19:33:52.215Z,4.40
2023-10-19T19:36:20.999Z,5.97
2023-10-19T19:38:50.175Z,1.92
2023-10-19T19:41:19.860Z,4.25
2023-10-19T19:43:48.504Z,3.00
2023-10-19T19:46:19.190Z,10.48
2023-10-19T19:48:49.508Z,10.07
2023-10-19T19:51:19.143Z,10.07
2023-10-19T19:53:48.180Z,5.43
2023-10-19T19:56:16.567Z,5.63
2023-10-19T19:58:46.858Z,4.65
2023-10-19T20:01:15.253Z,3.50
2023-10-19T20:03:44.923Z,4.97
2023-10-19T20:08:44.674Z,3.60
2023-10-19T20:11:20.488Z,6.22
2023-10-19T20:13:50.685Z,5.90
2023-10-19T20:16:19.105Z,6.35
2023-10-19T20:18:47.835Z,6.93
2023-10-19T20:21:17.999Z,5.85
2023-10-19T20:23:49.445Z,5.38
2023-10-19T20:26:18.012Z,5.13
2023-10-19T20:28:46.609Z,6.85
2023-10-19T20:31:16.358Z,5.45
2023-10-19T20:33:45.516Z,5.43
2023-10-19T20:36:14.798Z,4.32
2023-10-19T20:38:45.868Z,5.22
2023-10-19T20:41:14.282Z,5.07
2023-10-19T20:43:45.118Z,4.93
2023-10-19T20:46:13.585Z,7.00
2023-10-19T20:48:45.257Z,5.47
2023-10-19T20:51:17.373Z,4.90
2023-10-19T20:53:45.955Z,5.72
2023-10-19T20:56:14.370Z,4.00
2023-10-19T20:58:43.163Z,5.38
2023-10-19T21:01:13.675Z,7.05
2023-10-19T21:03:43.960Z,5.72
2023-10-19T21:06:13.456Z,3.70
2023-10-19T21:08:42.810Z,7.82
2023-10-19T21:11:18.586Z,4.78
2023-10-19T21:13:47.787Z,6.90
2023-10-19T21:16:16.940Z,8.18
2023-10-19T21:18:46.939Z,11.13
2023-10-19T21:21:15.465Z,9.57
2023-10-19T21:23:44.258Z,7.00
2023-10-19T21:26:12.951Z,10.32
2023-10-19T21:28:41.860Z,7.53
2023-10-19T21:31:11.380Z,7.47
2023-10-19T21:33:40.228Z,6.88
2023-10-19T21:36:09.848Z,8.27
2023-10-19T21:38:39.336Z,7.30
2023-10-19T21:41:07.698Z,9.77
2023-10-19T21:43:37.278Z,6.72
2023-10-19T21:46:05.646Z,7.40
2023-10-19T21:48:34.318Z,8.50
2023-10-19T21:51:02.565Z,7.25
2023-10-19T21:53:32.602Z,7.43
2023-10-19T21:56:00.951Z,10.63
2023-10-19T21:58:29.878Z,12.38
2023-10-19T22:01:01.884Z,9.20
2023-10-19T22:03:30.935Z,10.05
2023-10-19T22:05:59.799Z,9.70
2023-10-19T22:08:33.065Z,11.25
2023-10-19T22:11:01.808Z,9.40
2023-10-19T22:13:32.004Z,9.23
2023-10-19T22:16:01.049Z,10.70
2023-10-19T22:18:29.877Z,11.07
2023-10-19T22:21:01.501Z,7.57
2023-10-19T22:23:30.394Z,7.72
2023-10-19T22:26:00.224Z,6.35
2023-10-19T22:28:29.014Z,7.43
2023-10-19T22:30:57.425Z,9.23
2023-10-19T22:33:26.091Z,6.70
2023-10-19T22:35:55.646Z,8.13
2023-10-19T22:38:24.276Z,8.05
2023-10-19T22:40:52.910Z,8.30
2023-10-19T22:43:23.803Z,10.55
2023-10-19T22:45:55.357Z,7.95
2023-10-19T22:48:24.137Z,8.40
2023-10-19T22:50:52.388Z,7.13
2023-10-19T22:53:20.926Z,5.67
2023-10-19T22:55:49.284Z,7.22
2023-10-19T22:58:18.185Z,6.13
2023-10-19T23:00:48.131Z,8.93
2023-10-19T23:03:19.082Z,8.95
2023-10-19T23:05:47.923Z,8.20
2023-10-19T23:08:16.585Z,7.32
2023-10-19T23:10:46.554Z,8.68
2023-10-19T23:13:18.367Z,6.88
2023-10-19T23:15:49.531Z,9.55
2023-10-19T23:18:18.403Z,6.93
2023-10-19T23:20:53.559Z,8.43
2023-10-19T23:23:23.222Z,4.30
2023-10-19T23:25:55.827Z,5.22
2023-10-19T23:28:27.244Z,6.32
2023-10-19T23:31:02.769Z,6.57
2023-10-19T23:33:31.351Z,4.45
2023-10-19T23:35:59.644Z,6.35
2023-10-19T23:38:28.229Z,7.22
2023-10-19T23:40:57.023Z,10.63
2023-10-19T23:43:27.142Z,7.82
2023-10-19T23:45:57.074Z,7.07
2023-10-19T23:48:26.672Z,5.68
2023-10-19T23:50:55.213Z,6.53
2023-10-19T23:53:23.700Z,5.03
2023-10-19T23:55:52.688Z,9.85
2023-10-19T23:58:21.235Z,6.05
